createdAt,value
2022-12-04T00:01:14.583Z,37.03
2022-12-04T00:03:41.221Z,63.77
2022-12-04T00:06:13.292Z,36.60
2022-12-04T00:08:40.334Z,54.37
2022-12-04T00:11:08.736Z,39.53
2022-12-04T00:13:36.252Z,40.97
2022-12-04T00:16:11.795Z,33.10
2022-12-04T00:18:38.679Z,57.93
2022-12-04T00:21:09.224Z,43.03
2022-12-04T00:23:36.843Z,43.20
2022-12-04T00:26:15.690Z,39.77
2022-12-04T00:28:43.396Z,50.37
2022-12-04T00:31:13.701Z,28.30
2022-12-04T00:33:40.679Z,31.77
2022-12-04T00:36:10.137Z,29.87
2022-12-04T00:38:37.620Z,44.50
2022-12-04T00:41:05.088Z,32.60
2022-12-04T00:43:32.179Z,29.87
2022-12-04T00:45:59.198Z,45.60
2022-12-04T00:48:26.254Z,51.07
2022-12-04T00:50:54.303Z,40.97
2022-12-04T00:53:21.693Z,32.43
2022-12-04T00:55:48.440Z,24.73
2022-12-04T00:58:15.069Z,27.17
2022-12-04T01:00:43.264Z,24.67
2022-12-04T01:03:10.235Z,62.40
2022-12-04T01:05:41.853Z,58.27
2022-12-04T01:08:10.001Z,39.53
2022-12-04T01:10:40.373Z,67.87
2022-12-04T01:13:06.985Z,60.03
2022-12-04T01:15:34.078Z,52.50
2022-12-04T01:18:00.608Z,47.50
2022-12-04T01:20:27.134Z,30.80
2022-12-04T01:22:53.697Z,33.57
2022-12-04T01:25:20.321Z,33.73
2022-12-04T01:27:46.939Z,53.57
2022-12-04T01:30:13.696Z,37.30
2022-12-04T01:32:40.255Z,33.07
2022-12-04T01:35:07.238Z,51.03
2022-12-04T01:37:34.009Z,61.07
2022-12-04T01:40:00.621Z,50.43
2022-12-04T01:42:27.921Z,40.33
2022-12-04T01:45:25.406Z,69.93
2022-12-04T01:47:55.857Z,41.07
2022-12-04T01:50:22.509Z,58.67
2022-12-04T01:52:49.349Z,73.53
2022-12-04T01:55:16.482Z,41.90
2022-12-04T01:57:43.136Z,52.67
2022-12-04T02:00:13.762Z,50.23
2022-12-04T02:02:43.759Z,49.93
2022-12-04T02:05:13.714Z,44.60
2022-12-04T02:07:41.645Z,62.03
2022-12-04T02:10:09.635Z,27.47
2022-12-04T02:12:45.937Z,45.27
2022-12-04T02:15:23.363Z,60.50
2022-12-04T02:18:11.452Z,39.00
2022-12-04T02:20:40.885Z,63.43
2022-12-04T02:23:29.611Z,62.83
2022-12-04T02:25:59.142Z,40.10
2022-12-04T02:28:28.650Z,53.73
2022-12-04T02:31:02.697Z,39.10
2022-12-04T02:33:45.320Z,84.97
2022-12-04T02:36:22.047Z,85.63
2022-12-04T02:39:30.370Z,84.47
2022-12-04T02:42:04.128Z,62.70
2022-12-04T02:44:41.236Z,70.77
2022-12-04T02:47:13.124Z,48.50
2022-12-04T02:49:51.355Z,100.13
2022-12-04T02:52:23.944Z,69.60
2022-12-04T02:54:57.844Z,67.17
2022-12-04T02:57:33.336Z,49.67
2022-12-04T03:00:01.568Z,41.87
2022-12-04T03:02:47.024Z,51.93
2022-12-04T03:05:18.520Z,60.37
2022-12-04T03:07:54.150Z,63.00
2022-12-04T03:10:29.841Z,75.37
2022-12-04T03:13:11.817Z,104.13
2022-12-04T03:15:43.684Z,87.80
2022-12-04T03:18:33.100Z,58.10
2022-12-04T03:21:04.633Z,41.13
2022-12-04T03:24:08.030Z,87.40
2022-12-04T03:26:46.037Z,53.07
2022-12-04T03:29:20.464Z,59.43
2022-12-04T03:31:54.657Z,80.07
2022-12-04T03:34:58.049Z,32.97
2022-12-04T03:37:54.039Z,38.90
2022-12-04T03:40:26.084Z,86.87
2022-12-04T03:43:02.012Z,56.10
2022-12-04T03:45:51.027Z,75.00
2022-12-04T03:48:23.580Z,62.97
2022-12-04T03:51:02.906Z,64.30
2022-12-04T03:53:40.074Z,38.17
2022-12-04T03:56:11.247Z,87.50
2022-12-04T03:58:41.536Z,45.33
2022-12-04T04:01:10.802Z,63.93
2022-12-04T04:03:43.715Z,56.53
2022-12-04T04:06:16.041Z,65.33
2022-12-04T04:08:48.218Z,70.20
2022-12-04T04:11:42.528Z,83.33
2022-12-04T04:14:32.772Z,61.10
2022-12-04T04:17:29.684Z,86.53
2022-12-04T04:20:23.680Z,56.50
2022-12-04T04:23:13.672Z,57.10
2022-12-04T04:25:42.559Z,67.17
2022-12-04T04:28:41.879Z,79.70
2022-12-04T04:31:17.988Z,67.60
2022-12-04T04:34:18.807Z,91.23
2022-12-04T04:37:19.300Z,70.77
2022-12-04T04:40:12.661Z,58.47
2022-12-04T04:42:47.647Z,72.03
2022-12-04T04:45:26.167Z,76.33
2022-12-04T04:47:58.585Z,91.30
2022-12-04T04:50:25.696Z,68.27
2022-12-04T04:52:58.923Z,60.20
2022-12-04T04:55:26.503Z,75.93
2022-12-04T04:57:53.147Z,70.87
2022-12-04T05:00:23.273Z,90.93
2022-12-04T05:02:50.504Z,47.07
2022-12-04T05:05:22.951Z,91.27
2022-12-04T05:07:49.495Z,64.67
2022-12-04T05:10:16.191Z,82.30
2022-12-04T05:12:42.737Z,71.40
2022-12-04T05:15:09.825Z,111.73
2022-12-04T05:17:37.020Z,64.57
2022-12-04T05:20:06.141Z,79.33
2022-12-04T05:22:35.135Z,74.93
2022-12-04T05:25:04.000Z,77.53
2022-12-04T05:27:31.676Z,68.13
2022-12-04T05:29:59.254Z,59.27
2022-12-04T05:32:28.454Z,40.63
2022-12-04T05:34:56.447Z,81.80
2022-12-04T05:37:23.704Z,101.53
2022-12-04T05:39:50.293Z,77.77
2022-12-04T05:42:17.156Z,86.57
2022-12-04T05:44:43.825Z,57.37
2022-12-04T05:47:10.488Z,83.47
2022-12-04T05:49:37.404Z,66.50
2022-12-04T05:52:05.465Z,67.13
2022-12-04T05:54:32.734Z,86.37
2022-12-04T05:56:59.596Z,84.03
2022-12-04T05:59:26.275Z,67.63
2022-12-04T06:01:53.141Z,51.33
2022-12-04T06:04:19.859Z,97.03
2022-12-04T06:06:46.658Z,97.30
2022-12-04T06:09:13.311Z,93.37
2022-12-04T06:11:42.080Z,65.57
2022-12-04T06:14:12.331Z,72.90
2022-12-04T06:16:44.301Z,64.60
2022-12-04T06:19:17.642Z,95.77
2022-12-04T06:21:46.913Z,67.60
2022-12-04T06:24:16.690Z,48.53
2022-12-04T06:27:04.046Z,68.03
2022-12-04T06:29:30.568Z,62.13
2022-12-04T06:31:57.199Z,75.33
2022-12-04T06:34:24.013Z,99.70
2022-12-04T06:36:50.652Z,66.43
2022-12-04T06:39:19.140Z,97.67
2022-12-04T06:41:47.729Z,98.77
2022-12-04T06:44:17.504Z,80.10
2022-12-04T06:46:47.076Z,73.50
2022-12-04T06:49:14.716Z,80.90
2022-12-04T06:51:41.458Z,82.87
2022-12-04T06:54:09.402Z,44.40
2022-12-04T06:56:36.062Z,108.63
2022-12-04T06:59:04.412Z,69.40
2022-12-04T07:01:33.940Z,66.17
2022-12-04T07:04:03.521Z,89.17
2022-12-04T07:06:32.884Z,68.83
2022-12-04T07:09:13.955Z,100.53
2022-12-04T07:11:42.258Z,74.03
2022-12-04T07:14:10.012Z,81.83
2022-12-04T07:16:41.124Z,77.50
2022-12-04T07:19:13.832Z,71.00
2022-12-04T07:21:41.166Z,90.63
2022-12-04T07:24:08.031Z,62.00
2022-12-04T07:26:34.706Z,81.33
2022-12-04T07:29:01.419Z,106.10
2022-12-04T07:31:29.680Z,84.77
2022-12-04T07:33:57.159Z,69.90
2022-12-04T07:36:25.429Z,68.67
2022-12-04T07:38:52.463Z,79.37
2022-12-04T07:41:19.928Z,81.87
2022-12-04T07:43:47.024Z,51.40
2022-12-04T07:46:16.893Z,87.33
2022-12-04T07:48:43.822Z,94.57
2022-12-04T07:51:18.201Z,64.27
2022-12-04T07:53:45.191Z,60.63
2022-12-04T07:56:13.368Z,38.27
2022-12-04T07:58:40.353Z,52.63
2022-12-04T08:01:11.048Z,64.23
2022-12-04T08:03:42.208Z,57.97
2022-12-04T08:06:12.200Z,71.10
2022-12-04T08:08:38.902Z,53.90
2022-12-04T08:11:10.394Z,55.27
2022-12-04T08:13:37.439Z,86.03
2022-12-04T08:16:06.412Z,56.10
2022-12-04T08:18:33.152Z,75.97
2022-12-04T08:21:11.132Z,82.97
2022-12-04T08:23:39.047Z,43.87
2022-12-04T08:26:06.606Z,66.37
2022-12-04T08:28:33.689Z,68.07
2022-12-04T08:31:08.841Z,56.27
2022-12-04T08:33:36.033Z,46.93
2022-12-04T08:36:06.289Z,59.80
2022-12-04T08:38:32.949Z,43.80
2022-12-04T08:41:02.119Z,40.10
2022-12-04T08:43:29.370Z,44.80
2022-12-04T08:46:05.136Z,62.07
2022-12-04T08:48:32.417Z,48.47
2022-12-04T08:50:59.326Z,50.10
2022-12-04T08:53:25.924Z,64.50
2022-12-04T08:55:53.092Z,52.93
2022-12-04T08:58:20.225Z,42.73
2022-12-04T09:00:46.847Z,36.83
2022-12-04T09:03:15.759Z,38.20
2022-12-04T09:05:45.952Z,42.77
2022-12-04T09:08:14.474Z,62.73
2022-12-04T09:10:41.983Z,41.27
2022-12-04T09:13:09.037Z,46.73
2022-12-04T09:15:39.356Z,50.97
2022-12-04T09:18:07.244Z,43.80
2022-12-04T09:20:33.960Z,54.13
2022-12-04T09:23:04.972Z,54.20
2022-12-04T09:25:35.151Z,60.87
2022-12-04T09:28:01.782Z,73.23
2022-12-04T09:30:28.403Z,63.57
2022-12-04T09:32:55.033Z,49.97
2022-12-04T09:35:21.681Z,43.53
2022-12-04T09:37:48.241Z,66.73
2022-12-04T09:40:38.358Z,37.67
2022-12-04T09:43:17.289Z,50.93
2022-12-04T09:45:51.437Z,43.53
2022-12-04T09:48:21.279Z,54.87
2022-12-04T09:50:50.215Z,52.97
2022-12-04T09:53:29.865Z,56.13
2022-12-04T09:56:04.636Z,62.07
2022-12-04T09:58:42.944Z,50.90
2022-12-04T10:01:33.147Z,41.03
2022-12-04T10:04:05.660Z,51.07
2022-12-04T10:06:42.148Z,38.67
2022-12-04T10:09:28.515Z,41.43
2022-12-04T10:12:21.425Z,40.83
2022-12-04T10:15:22.166Z,25.30
2022-12-04T10:18:21.025Z,43.37
2022-12-04T10:21:26.140Z,45.60
2022-12-04T10:23:58.948Z,40.33
2022-12-04T10:26:39.790Z,50.57
2022-12-04T10:29:12.546Z,40.40
2022-12-04T10:31:40.413Z,46.13
2022-12-04T10:34:16.466Z,42.07
2022-12-04T10:36:50.399Z,44.47
2022-12-04T10:39:21.995Z,54.33
2022-12-04T10:41:54.461Z,41.60
2022-12-04T10:44:21.155Z,40.97
2022-12-04T10:46:47.897Z,70.43
2022-12-04T10:49:21.362Z,56.67
2022-12-04T10:51:48.672Z,61.03
2022-12-04T10:54:23.378Z,41.93
2022-12-04T10:57:05.233Z,38.97
2022-12-04T10:59:32.751Z,42.23
2022-12-04T11:02:27.690Z,29.97
2022-12-04T11:05:05.292Z,38.73
2022-12-04T11:07:43.228Z,44.23
2022-12-04T11:10:25.150Z,45.83
2022-12-04T11:12:56.099Z,41.03
2022-12-04T11:15:23.961Z,47.30
2022-12-04T11:17:52.630Z,68.33
2022-12-04T11:20:26.518Z,45.00
2022-12-04T11:22:58.990Z,46.67
2022-12-04T11:25:28.722Z,39.23
2022-12-04T11:27:59.603Z,51.23
2022-12-04T11:30:31.710Z,42.17
2022-12-04T11:32:59.143Z,40.63
2022-12-04T11:35:28.718Z,43.07
2022-12-04T11:38:13.602Z,45.40
2022-12-04T11:40:45.901Z,46.37
2022-12-04T11:43:17.898Z,43.50
2022-12-04T11:45:58.536Z,51.67
2022-12-04T11:48:25.685Z,67.63
2022-12-04T11:50:58.974Z,44.13
2022-12-04T11:54:02.977Z,55.93
2022-12-04T11:56:34.386Z,51.17
2022-12-04T11:59:16.073Z,49.67
2022-12-04T12:01:58.724Z,40.53
2022-12-04T12:04:53.121Z,47.33
2022-12-04T12:07:40.925Z,60.80
2022-12-04T12:10:33.322Z,55.47
2022-12-04T12:13:21.415Z,36.83
2022-12-04T12:16:12.450Z,40.43
2022-12-04T12:19:08.573Z,46.60
2022-12-04T12:21:54.728Z,43.63
2022-12-04T12:24:29.722Z,40.30
2022-12-04T12:27:22.424Z,67.20
2022-12-04T12:29:48.966Z,50.80
2022-12-04T12:32:39.139Z,39.67
2022-12-04T12:35:20.840Z,42.60
2022-12-04T12:37:56.399Z,52.37
2022-12-04T12:40:32.496Z,49.70
2022-12-04T12:43:12.382Z,43.07
2022-12-04T12:45:52.794Z,58.83
2022-12-04T12:48:37.046Z,43.63
2022-12-04T12:51:30.094Z,52.47
2022-12-04T12:54:09.542Z,51.57
2022-12-04T12:56:43.450Z,43.97
2022-12-04T12:59:19.515Z,47.23
2022-12-04T13:01:59.996Z,59.63
2022-12-04T13:04:48.086Z,50.70
2022-12-04T13:07:17.652Z,51.80
2022-12-04T13:10:20.217Z,58.73
2022-12-04T13:12:52.877Z,50.60
2022-12-04T13:15:22.244Z,51.70
2022-12-04T13:17:54.616Z,45.67
2022-12-04T13:20:30.585Z,50.67
2022-12-04T13:23:03.124Z,41.23
2022-12-04T13:25:31.481Z,43.70
2022-12-04T13:28:24.752Z,64.53
2022-12-04T13:31:29.669Z,29.70
2022-12-04T13:34:08.336Z,41.53
2022-12-04T13:36:37.547Z,49.73
2022-12-04T13:39:25.339Z,47.50
2022-12-04T13:41:59.191Z,45.00
2022-12-04T13:44:27.029Z,28.07
2022-12-04T13:47:00.206Z,52.83
2022-12-04T13:49:32.884Z,37.63
2022-12-04T13:52:02.343Z,40.13
2022-12-04T13:54:30.607Z,43.57
2022-12-04T13:57:16.485Z,38.40
2022-12-04T13:59:43.867Z,65.17
2022-12-04T14:02:16.365Z,40.17
2022-12-04T14:04:52.670Z,70.53
2022-12-04T14:07:27.336Z,47.47
2022-12-04T14:09:56.423Z,77.83
2022-12-04T14:12:31.671Z,54.13
2022-12-04T14:15:00.622Z,51.17
2022-12-04T14:17:36.393Z,68.90
2022-12-04T14:20:21.694Z,58.57
2022-12-04T14:22:48.273Z,48.23
2022-12-04T14:25:14.784Z,74.57
2022-12-04T14:27:41.396Z,64.80
2022-12-04T14:30:33.316Z,67.13
2022-12-04T14:33:09.461Z,40.63
2022-12-04T14:35:46.489Z,75.30
2022-12-04T14:38:18.891Z,51.07
2022-12-04T14:40:49.589Z,56.07
2022-12-04T14:43:40.868Z,39.47
2022-12-04T14:46:17.986Z,55.87
2022-12-04T14:48:53.696Z,51.67
2022-12-04T14:51:38.947Z,52.60
2022-12-04T14:54:21.066Z,61.83
2022-12-04T14:57:00.636Z,47.97
2022-12-04T14:59:42.728Z,38.30
2022-12-04T15:02:15.962Z,39.70
2022-12-04T15:04:46.474Z,47.03
2022-12-04T15:07:25.348Z,59.33
2022-12-04T15:10:15.842Z,30.73
2022-12-04T15:12:52.973Z,31.30
2022-12-04T15:15:21.991Z,45.47
2022-12-04T15:18:09.905Z,41.03
2022-12-04T15:20:48.646Z,49.40
2022-12-04T15:23:17.458Z,34.07
2022-12-04T15:25:47.177Z,40.87
2022-12-04T15:28:21.119Z,30.10
2022-12-04T15:30:50.153Z,38.27
2022-12-04T15:33:29.733Z,44.37
2022-12-04T15:36:09.575Z,54.20
2022-12-04T15:38:36.842Z,33.27
2022-12-04T15:41:03.593Z,64.10
2022-12-04T15:43:39.911Z,62.27
2022-12-04T15:46:23.961Z,64.43
2022-12-04T15:48:50.702Z,46.83
2022-12-04T15:51:21.394Z,49.67
2022-12-04T15:53:48.234Z,37.70
2022-12-04T15:56:21.414Z,50.13
2022-12-04T15:59:01.047Z,49.00
2022-12-04T16:01:37.727Z,48.17
2022-12-04T16:04:04.541Z,40.53
2022-12-04T16:06:35.135Z,73.67
2022-12-04T16:09:21.891Z,72.83
2022-12-04T16:12:00.113Z,57.87
2022-12-04T16:14:27.277Z,72.57
2022-12-04T16:17:01.225Z,60.17
2022-12-04T16:19:36.375Z,63.97
2022-12-04T16:22:09.841Z,63.40
2022-12-04T16:24:36.513Z,53.97
2022-12-04T16:27:11.278Z,81.47
2022-12-04T16:29:37.883Z,80.07
2022-12-04T16:32:04.884Z,71.87
2022-12-04T16:34:31.793Z,64.00
2022-12-04T16:36:59.237Z,78.37
2022-12-04T16:39:25.964Z,57.50
2022-12-04T16:41:52.525Z,79.40
2022-12-04T16:44:19.176Z,90.97
2022-12-04T16:46:45.912Z,77.20
2022-12-04T16:49:13.715Z,45.97
2022-12-04T16:51:46.014Z,83.60
2022-12-04T16:54:13.631Z,53.33
2022-12-04T16:56:40.612Z,37.47
2022-12-04T16:59:11.730Z,81.70
2022-12-04T17:01:44.367Z,66.10
2022-12-04T17:04:11.242Z,59.20
2022-12-04T17:06:38.284Z,63.20
2022-12-04T17:09:05.539Z,56.87
2022-12-04T17:11:32.147Z,49.00
2022-12-04T17:13:58.810Z,55.10
2022-12-04T17:16:25.494Z,70.53
2022-12-04T17:18:52.415Z,44.43
2022-12-04T17:21:19.005Z,69.87
2022-12-04T17:23:45.728Z,53.10
2022-12-04T17:26:15.095Z,80.47
2022-12-04T17:28:42.023Z,86.13
2022-12-04T17:31:25.717Z,85.70
2022-12-04T17:33:53.336Z,74.03
2022-12-04T17:36:23.583Z,102.13
2022-12-04T17:38:56.742Z,86.87
2022-12-04T17:41:23.634Z,59.07
2022-12-04T17:43:50.523Z,65.77
2022-12-04T17:46:21.720Z,110.03
2022-12-04T17:48:49.023Z,39.90
2022-12-04T17:51:21.392Z,92.73
2022-12-04T17:53:48.302Z,58.97
2022-12-04T17:56:22.714Z,110.26
2022-12-04T17:58:50.449Z,122.93
2022-12-04T18:01:29.024Z,40.63
2022-12-04T18:03:58.182Z,66.67
2022-12-04T18:06:27.383Z,52.80
2022-12-04T18:08:54.321Z,48.53
2022-12-04T18:11:26.963Z,49.30
2022-12-04T18:14:00.096Z,66.90
2022-12-04T18:16:28.977Z,45.53
2022-12-04T18:18:56.980Z,46.13
2022-12-04T18:21:24.146Z,42.60
2022-12-04T18:23:51.320Z,60.73
2022-12-04T18:26:23.791Z,42.17
2022-12-04T18:28:50.968Z,25.90
2022-12-04T18:31:18.909Z,30.80
2022-12-04T18:33:46.376Z,41.30
2022-12-04T18:36:21.010Z,35.90
2022-12-04T18:38:52.620Z,33.47
2022-12-04T18:41:19.220Z,43.43
2022-12-04T18:43:45.818Z,41.33
2022-12-04T18:46:14.394Z,37.63
2022-12-04T18:48:42.401Z,42.43
2022-12-04T18:51:27.227Z,50.40
2022-12-04T18:53:57.249Z,58.30
2022-12-04T18:56:24.645Z,33.23
2022-12-04T18:59:00.292Z,70.90
2022-12-04T19:01:28.015Z,51.80
2022-12-04T19:03:59.934Z,47.63
2022-12-04T19:06:28.797Z,52.60
2022-12-04T19:08:55.477Z,51.83
2022-12-04T19:11:22.095Z,46.93
2022-12-04T19:13:49.909Z,113.53
2022-12-04T19:16:18.055Z,63.77
2022-12-04T19:18:46.704Z,52.87
2022-12-04T19:21:17.395Z,49.87
2022-12-04T19:23:55.061Z,56.97
2022-12-04T19:26:21.707Z,40.37
2022-12-04T19:28:48.363Z,64.20
2022-12-04T19:31:16.866Z,67.37
2022-12-04T19:33:43.608Z,45.97
2022-12-04T19:36:11.666Z,63.10
2022-12-04T19:38:38.507Z,52.43
2022-12-04T19:41:08.121Z,63.13
2022-12-04T19:43:34.862Z,92.17
2022-12-04T19:46:01.831Z,74.73
2022-12-04T19:48:28.453Z,57.77
2022-12-04T19:50:55.109Z,55.00
2022-12-04T19:53:21.666Z,71.07
2022-12-04T19:55:48.353Z,83.97
2022-12-04T19:58:14.998Z,83.97
2022-12-04T20:00:41.589Z,75.23
2022-12-04T20:03:08.177Z,77.73
2022-12-04T20:05:37.896Z,53.00
2022-12-04T20:10:30.388Z,57.70
2022-12-04T20:12:57.195Z,54.93
2022-12-04T20:15:23.818Z,42.27
2022-12-04T20:17:52.117Z,52.40
2022-12-04T20:20:18.836Z,35.33
2022-12-04T20:22:46.090Z,36.10
2022-12-04T20:25:12.636Z,38.37
2022-12-04T20:27:39.293Z,34.80
2022-12-04T20:30:06.571Z,24.77
2022-12-04T20:32:33.784Z,69.27
2022-12-04T20:35:00.348Z,84.97
2022-12-04T20:37:27.203Z,92.73
2022-12-04T20:39:54.769Z,100.43
2022-12-04T20:42:21.683Z,88.03
2022-12-04T20:44:48.378Z,70.33
2022-12-04T20:47:15.356Z,53.27
2022-12-04T20:49:42.108Z,65.83
2022-12-04T20:52:08.740Z,109.80
2022-12-04T20:54:41.041Z,67.33
2022-12-04T20:57:08.246Z,70.70
2022-12-04T20:59:34.880Z,74.03
2022-12-04T21:02:01.593Z,89.00
2022-12-04T21:04:28.267Z,118.77
2022-12-04T21:06:54.800Z,97.30
2022-12-04T21:09:24.754Z,38.63
2022-12-04T21:11:54.314Z,36.20
2022-12-04T21:14:44.914Z,65.37
2022-12-04T21:17:18.332Z,43.50
2022-12-04T21:19:47.036Z,32.10
2022-12-04T21:22:14.412Z,23.53
2022-12-04T21:24:42.276Z,54.87
2022-12-04T21:27:09.942Z,46.63
2022-12-04T21:29:37.268Z,55.07
2022-12-04T21:32:05.615Z,49.57
2022-12-04T21:34:32.798Z,34.97
2022-12-04T21:36:59.489Z,19.83
2022-12-04T21:39:26.184Z,28.57
2022-12-04T21:42:11.501Z,19.97
2022-12-04T21:44:38.267Z,24.93
2022-12-04T21:47:05.130Z,56.23
2022-12-04T21:49:31.794Z,30.23
2022-12-04T21:51:59.062Z,24.57
2022-12-04T21:54:27.650Z,23.60
2022-12-04T21:56:54.833Z,25.43
2022-12-04T21:59:21.559Z,21.60
2022-12-04T22:01:48.388Z,26.33
2022-12-04T22:04:15.062Z,35.73
2022-12-04T22:06:42.271Z,32.37
2022-12-04T22:09:10.869Z,29.43
2022-12-04T22:11:39.021Z,21.07
2022-12-04T22:14:05.618Z,23.60
2022-12-04T22:16:35.746Z,24.60
2022-12-04T22:19:05.039Z,31.00
2022-12-04T22:21:31.636Z,33.17
2022-12-04T22:24:00.426Z,23.80
2022-12-04T22:26:29.095Z,23.33
2022-12-04T22:28:56.226Z,27.90
2022-12-04T22:31:25.034Z,26.93
2022-12-04T22:33:54.893Z,20.97
2022-12-04T22:36:24.027Z,18.13
2022-12-04T22:39:09.898Z,26.87
2022-12-04T22:41:37.787Z,22.43
2022-12-04T22:44:04.872Z,21.50
2022-12-04T22:46:31.628Z,15.70
2022-12-04T22:48:59.652Z,19.00
2022-12-04T22:51:27.640Z,23.33
2022-12-04T22:53:58.295Z,14.17
2022-12-04T22:56:30.414Z,19.53
2022-12-04T22:58:58.712Z,20.90
2022-12-04T23:01:29.981Z,17.30
2022-12-04T23:03:57.081Z,16.83
2022-12-04T23:06:25.551Z,12.77
2022-12-04T23:08:56.375Z,15.27
2022-12-04T23:11:24.869Z,15.17
2022-12-04T23:13:57.798Z,20.87
2022-12-04T23:16:24.948Z,14.57
2022-12-04T23:18:52.076Z,15.97
2022-12-04T23:21:19.929Z,19.43
2022-12-04T23:23:47.744Z,19.77
2022-12-04T23:26:17.901Z,17.07
2022-12-04T23:28:44.854Z,16.47
2022-12-04T23:31:12.334Z,22.83
2022-12-04T23:33:40.189Z,20.90
2022-12-04T23:36:08.393Z,11.50
2022-12-04T23:38:37.257Z,15.50
2022-12-04T23:41:14.319Z,22.07
2022-12-04T23:43:41.994Z,17.17
2022-12-04T23:46:11.480Z,18.90
2022-12-04T23:48:39.617Z,17.63
2022-12-04T23:51:07.109Z,26.33
2022-12-04T23:53:33.826Z,18.27
2022-12-04T23:56:05.944Z,16.00
2022-12-04T23:58:33.964Z,25.33
